createdAt,value
2022-10-26T00:01:15.250Z,95459.03
2022-10-26T00:03:43.527Z,95473.13
2022-10-26T00:06:12.980Z,95464.63
2022-10-26T00:08:40.230Z,95462.53
2022-10-26T00:11:08.071Z,95457.81
2022-10-26T00:13:35.783Z,95464.53
2022-10-26T00:16:08.661Z,95468.03
2022-10-26T00:18:35.702Z,95464.03
2022-10-26T00:21:06.860Z,95467.53
2022-10-26T00:23:33.963Z,95471.25
2022-10-26T00:26:00.791Z,95468.41
2022-10-26T00:28:27.603Z,95467.00
2022-10-26T00:30:54.483Z,95463.13
2022-10-26T00:33:21.380Z,95473.63
2022-10-26T00:35:57.334Z,95462.66
2022-10-26T00:38:24.083Z,95458.50
2022-10-26T00:40:51.071Z,95474.47
2022-10-26T00:43:30.215Z,95469.34
2022-10-26T00:45:59.675Z,95470.69
2022-10-26T00:48:30.335Z,95470.13
2022-10-26T00:51:00.865Z,95460.19
2022-10-26T00:53:28.501Z,95456.31
2022-10-26T00:55:56.421Z,95456.50
2022-10-26T00:58:25.022Z,95460.28
2022-10-26T01:00:52.972Z,95443.81
2022-10-26T01:03:20.792Z,95452.88
2022-10-26T01:05:49.583Z,95460.84
2022-10-26T01:08:17.304Z,95451.19
2022-10-26T01:10:44.475Z,95439.09
2022-10-26T01:13:13.506Z,95447.53
2022-10-26T01:15:58.868Z,95450.00
2022-10-26T01:18:44.954Z,95451.50
2022-10-26T01:21:30.061Z,95447.06
2022-10-26T01:24:23.471Z,95452.34
2022-10-26T01:27:16.181Z,95446.75
2022-10-26T01:30:12.130Z,95455.63
2022-10-26T01:32:53.771Z,95450.44
2022-10-26T01:35:42.674Z,95440.78
2022-10-26T01:38:26.148Z,95432.09
2022-10-26T01:41:13.969Z,95441.41
2022-10-26T01:43:46.315Z,95422.41
2022-10-26T01:46:14.744Z,95444.94
2022-10-26T01:48:42.626Z,95445.59
2022-10-26T01:51:11.281Z,95437.66
2022-10-26T01:53:45.705Z,95444.34
2022-10-26T01:56:19.358Z,95411.72
2022-10-26T01:58:48.936Z,95435.97
2022-10-26T02:01:46.140Z,95408.84
2022-10-26T02:04:22.452Z,95436.97
2022-10-26T02:07:21.564Z,95428.22
2022-10-26T02:10:16.015Z,95438.69
2022-10-26T02:12:58.373Z,95443.75
2022-10-26T02:15:47.388Z,95431.47
2022-10-26T02:18:55.141Z,95412.72
2022-10-26T02:21:27.924Z,95428.97
2022-10-26T02:23:58.432Z,95435.19
2022-10-26T02:26:29.410Z,95418.94
2022-10-26T02:29:00.816Z,95436.72
2022-10-26T02:31:29.183Z,95441.88
2022-10-26T02:33:58.617Z,95447.00
2022-10-26T02:36:29.272Z,95428.72
2022-10-26T02:38:57.913Z,95422.94
2022-10-26T02:41:26.810Z,95447.00
2022-10-26T02:44:11.782Z,95425.88
2022-10-26T04:39:21.873Z,95506.44
2022-10-26T04:41:48.507Z,95505.25
2022-10-26T04:44:15.131Z,95500.59
2022-10-26T04:46:41.846Z,95506.66
2022-10-26T04:49:08.667Z,95509.28
2022-10-26T04:51:35.891Z,95517.78
2022-10-26T04:54:03.654Z,95500.94
2022-10-26T04:56:30.490Z,95525.53
2022-10-26T04:58:57.164Z,95507.16
2022-10-26T05:01:23.839Z,95521.00
2022-10-26T05:03:51.507Z,95519.97
2022-10-26T05:06:18.367Z,95519.81
2022-10-26T05:08:45.075Z,95518.13
2022-10-26T05:11:11.803Z,95526.63
2022-10-26T05:13:38.557Z,95528.91
2022-10-26T05:16:05.694Z,95523.72
2022-10-26T05:18:32.263Z,95517.50
2022-10-26T05:20:59.074Z,95526.25
2022-10-26T05:23:25.662Z,95517.97
2022-10-26T05:25:52.282Z,95523.34
2022-10-26T05:28:18.982Z,95532.88
2022-10-26T05:30:47.050Z,95518.47
2022-10-26T05:33:14.678Z,95529.13
2022-10-26T05:35:41.475Z,95538.22
2022-10-26T05:38:14.506Z,95541.03
2022-10-26T05:40:49.153Z,95530.19
2022-10-26T05:43:15.950Z,95551.19
2022-10-26T05:45:42.555Z,95536.34
2022-10-26T05:48:09.228Z,95550.47
2022-10-26T05:50:35.883Z,95548.84
2022-10-26T05:53:02.558Z,95561.34
2022-10-26T05:55:29.634Z,95560.53
2022-10-26T05:57:56.674Z,95564.94
2022-10-26T06:00:25.793Z,95564.94
2022-10-26T06:03:07.220Z,95564.69
2022-10-26T06:05:45.557Z,95567.50
2022-10-26T06:08:12.495Z,95577.28
2022-10-26T06:10:39.701Z,95574.81
2022-10-26T06:13:06.610Z,95574.75
2022-10-26T06:15:43.376Z,95580.69
2022-10-26T06:18:20.638Z,95575.13
2022-10-26T06:21:11.446Z,95584.88
2022-10-26T06:24:22.518Z,95588.97
2022-10-26T06:27:15.719Z,95578.69
2022-10-26T06:29:56.114Z,95585.78
2022-10-26T06:32:24.962Z,95575.94
2022-10-26T06:34:58.630Z,95587.94
2022-10-26T06:37:26.146Z,95593.06
2022-10-26T06:39:54.808Z,95582.84
2022-10-26T06:42:22.090Z,95595.56
2022-10-26T06:44:49.277Z,95588.84
2022-10-26T06:47:23.602Z,95600.09
2022-10-26T06:50:11.857Z,95594.50
2022-10-26T06:52:52.303Z,95604.47
2022-10-26T06:55:19.353Z,95606.59
2022-10-26T06:57:46.371Z,95601.97
2022-10-26T07:00:23.687Z,95601.34
2022-10-26T07:02:50.820Z,95609.03
2022-10-26T07:05:18.111Z,95609.47
2022-10-26T07:07:48.459Z,95598.47
2022-10-26T07:10:15.939Z,95617.19
2022-10-26T07:12:42.542Z,95600.97
2022-10-26T07:17:46.840Z,95600.25
2022-10-26T07:20:14.704Z,95604.03
2022-10-26T07:22:42.803Z,95596.31
2022-10-26T07:25:10.053Z,95608.88
2022-10-26T07:27:36.610Z,95599.97
2022-10-26T07:30:03.780Z,95609.41
2022-10-26T07:32:30.582Z,95608.28
2022-10-26T07:34:57.263Z,95593.66
2022-10-26T07:37:24.048Z,95593.00
2022-10-26T07:39:50.597Z,95599.09
2022-10-26T07:42:17.219Z,95596.66
2022-10-26T07:44:43.770Z,95592.34
2022-10-26T07:47:10.384Z,95586.84
2022-10-26T07:49:37.017Z,95593.88
2022-10-26T07:52:03.737Z,95598.72
2022-10-26T07:54:30.339Z,95588.69
2022-10-26T07:56:56.918Z,95596.09
2022-10-26T07:59:23.741Z,95576.88
2022-10-26T08:01:50.413Z,95596.91
2022-10-26T08:04:17.206Z,95595.22
2022-10-26T08:06:43.888Z,95599.44
2022-10-26T08:09:10.646Z,95597.84
2022-10-26T08:11:37.283Z,95590.72
2022-10-26T08:14:04.422Z,95591.00
2022-10-26T08:16:31.469Z,95591.78
2022-10-26T08:18:58.174Z,95597.38
2022-10-26T08:21:36.143Z,95581.50
2022-10-26T08:24:06.703Z,95594.88
2022-10-26T08:26:33.369Z,95590.91
2022-10-26T08:29:00.005Z,95582.44
2022-10-26T08:31:26.688Z,95584.28
2022-10-26T08:33:53.290Z,95586.28
2022-10-26T08:36:27.913Z,95591.63
2022-10-26T08:38:54.469Z,95593.13
2022-10-26T08:41:33.377Z,95593.38
2022-10-26T08:44:07.965Z,95586.59
2022-10-26T08:46:41.419Z,95567.00
2022-10-26T08:49:40.312Z,95591.88
2022-10-26T08:52:13.072Z,95588.34
2022-10-26T08:54:49.018Z,95589.84
2022-10-26T08:57:22.427Z,95602.13
2022-10-26T09:00:03.050Z,95594.13
2022-10-26T09:02:29.887Z,95598.63
2022-10-26T09:04:59.268Z,95600.38
2022-10-26T09:07:47.322Z,95601.88
2022-10-26T09:10:36.801Z,95589.81
2022-10-26T09:13:32.530Z,95599.13
2022-10-26T09:16:08.039Z,95597.56
2022-10-26T09:18:59.015Z,95582.16
2022-10-26T09:21:51.406Z,95588.63
2022-10-26T09:24:34.420Z,95595.00
2022-10-26T09:27:01.090Z,95601.72
2022-10-26T09:29:37.132Z,95588.38
2022-10-26T09:32:06.484Z,95575.53
2022-10-26T09:34:39.655Z,95566.63
2022-10-26T09:37:18.503Z,95587.59
2022-10-26T09:40:15.836Z,95582.69
2022-10-26T09:42:58.338Z,95585.72
2022-10-26T09:45:30.062Z,95565.00
2022-10-26T09:48:05.177Z,95571.69
2022-10-26T09:50:39.304Z,95570.06
2022-10-26T09:53:06.159Z,95573.28
2022-10-26T09:55:34.813Z,95571.94
2022-10-26T09:58:06.468Z,95563.19
2022-10-26T10:03:02.495Z,95562.84
2022-10-26T10:05:52.681Z,95555.56
2022-10-26T10:08:25.178Z,95539.59
2022-10-26T10:11:08.228Z,95557.59
2022-10-26T10:13:40.841Z,95542.91
2022-10-26T10:16:20.748Z,95497.56
2022-10-26T10:18:55.977Z,95547.00
2022-10-26T10:21:37.070Z,95540.66
2022-10-26T10:24:25.468Z,95537.31
2022-10-26T10:26:58.163Z,95541.22
2022-10-26T10:29:33.391Z,95532.03
2022-10-26T10:32:02.814Z,95535.53
2022-10-26T10:34:33.770Z,95531.72
2022-10-26T10:37:01.605Z,95532.69
2022-10-26T10:39:37.411Z,95531.50
2022-10-26T10:42:06.588Z,95524.03
2022-10-26T10:44:34.456Z,95520.03
2022-10-26T10:47:06.208Z,95516.84
2022-10-26T10:49:33.907Z,95507.97
2022-10-26T10:52:00.761Z,95510.13
2022-10-26T10:54:29.339Z,95520.63
2022-10-26T10:57:18.681Z,95518.75
2022-10-26T10:59:58.613Z,95513.91
2022-10-26T11:02:40.334Z,95512.06
2022-10-26T11:05:24.716Z,95504.69
2022-10-26T11:08:02.951Z,95510.78
2022-10-26T11:10:36.893Z,95510.34
2022-10-26T11:13:12.898Z,95503.94
2022-10-26T11:15:42.479Z,95507.03
2022-10-26T11:18:17.307Z,95501.03
2022-10-26T11:20:51.534Z,95496.34
2022-10-26T11:23:30.601Z,95505.97
2022-10-26T11:26:14.050Z,95505.88
2022-10-26T11:29:01.786Z,95498.66
2022-10-26T11:31:34.902Z,95500.25
2022-10-26T11:34:01.462Z,95494.78
2022-10-26T11:36:31.732Z,95500.69
2022-10-26T11:39:06.473Z,95494.91
2022-10-26T11:41:40.195Z,95496.81
2022-10-26T11:44:32.100Z,95485.91
2022-10-26T11:47:08.542Z,95491.00
2022-10-26T11:50:06.568Z,95484.63
2022-10-26T11:52:40.687Z,95497.13
2022-10-26T11:55:10.343Z,95490.78
2022-10-26T11:57:37.754Z,95491.88
2022-10-26T12:00:07.902Z,95480.03
2022-10-26T12:05:33.660Z,95482.34
2022-10-26T12:08:06.098Z,95478.59
2022-10-26T12:10:37.718Z,95479.75
2022-10-26T12:13:37.680Z,95487.25
2022-10-26T12:16:18.022Z,95475.97
2022-10-26T12:19:05.156Z,95480.97
2022-10-26T12:21:33.625Z,95470.84
2022-10-26T12:24:21.887Z,95481.16
2022-10-26T12:26:52.443Z,95476.06
2022-10-26T12:29:32.726Z,95480.22
2022-10-26T12:31:59.660Z,95466.22
2022-10-26T12:34:32.157Z,95476.81
2022-10-26T12:36:58.695Z,95481.66
2022-10-26T12:39:38.397Z,95486.91
2022-10-26T12:42:04.893Z,95481.22
2022-10-26T12:44:45.711Z,95479.53
2022-10-26T12:47:30.754Z,95473.00
2022-10-26T12:50:00.473Z,95477.06
2022-10-26T12:52:31.848Z,95463.03
2022-10-26T12:55:13.499Z,95477.78
2022-10-26T12:58:01.673Z,95479.19
2022-10-26T13:00:28.949Z,95482.13
2022-10-26T13:03:04.622Z,95484.38
2022-10-26T13:05:52.936Z,95489.28
2022-10-26T13:08:19.990Z,95472.97
2022-10-26T13:11:03.764Z,95476.66
2022-10-26T13:13:32.606Z,95481.22
2022-10-26T13:16:01.436Z,95480.53
2022-10-26T13:18:29.210Z,95473.41
2022-10-26T13:21:13.636Z,95485.03
2022-10-26T13:23:43.371Z,95478.38
2022-10-26T13:26:13.543Z,95485.09
2022-10-26T13:28:40.048Z,95487.75
2022-10-26T13:31:28.542Z,95488.63
2022-10-26T13:34:17.333Z,95491.31
2022-10-26T13:37:05.641Z,95488.22
2022-10-26T13:39:39.617Z,95492.53
2022-10-26T13:42:08.381Z,95493.19
2022-10-26T13:44:59.396Z,95485.28
2022-10-26T13:47:28.897Z,95492.44
2022-10-26T13:50:04.026Z,95494.78
2022-10-26T13:52:38.662Z,95495.09
2022-10-26T13:55:16.776Z,95496.28
2022-10-26T13:57:50.185Z,95499.41
2022-10-26T14:00:21.963Z,95501.28
2022-10-26T14:02:49.293Z,95502.63
2022-10-26T14:05:18.447Z,95498.31
2022-10-26T14:07:52.624Z,95494.81
2022-10-26T14:10:27.058Z,95497.34
2022-10-26T14:12:53.941Z,95493.72
2022-10-26T14:15:25.883Z,95508.44
2022-10-26T14:17:53.987Z,95497.06
2022-10-26T14:20:22.857Z,95487.44
2022-10-26T14:22:49.555Z,95494.59
2022-10-26T14:25:35.916Z,95505.75
2022-10-26T14:28:26.547Z,95508.41
2022-10-26T14:30:53.303Z,95507.53
2022-10-26T14:33:26.311Z,95508.25
2022-10-26T14:35:54.152Z,95505.69
2022-10-26T14:38:30.141Z,95501.88
2022-10-26T14:40:58.054Z,95510.91
2022-10-26T14:43:25.827Z,95510.00
2022-10-26T14:45:54.236Z,95506.25
2022-10-26T14:48:25.490Z,95507.88
2022-10-26T14:51:15.369Z,95504.09
2022-10-26T14:53:49.150Z,95497.59
2022-10-26T14:56:21.647Z,95515.75
2022-10-26T14:58:48.833Z,95517.72
2022-10-26T15:01:22.644Z,95515.09
2022-10-26T15:03:56.674Z,95520.38
2022-10-26T15:06:29.583Z,95512.22
2022-10-26T15:08:58.237Z,95520.66
2022-10-26T15:11:26.474Z,95518.97
2022-10-26T15:13:54.433Z,95517.81
2022-10-26T15:16:23.645Z,95517.22
2022-10-26T15:18:54.832Z,95525.38
2022-10-26T15:21:27.826Z,95526.97
2022-10-26T15:23:56.674Z,95539.56
2022-10-26T15:26:25.066Z,95535.59
2022-10-26T15:28:53.471Z,95543.16
2022-10-26T15:31:20.044Z,95536.13
2022-10-26T15:33:49.436Z,95546.91
2022-10-26T15:36:18.665Z,95552.84
2022-10-26T15:38:46.752Z,95548.78
2022-10-26T15:41:26.486Z,95552.03
2022-10-26T15:43:58.971Z,95565.50
2022-10-26T15:46:30.088Z,95566.09
2022-10-26T15:49:05.813Z,95575.16
2022-10-26T15:51:32.762Z,95575.16
2022-10-26T15:54:02.264Z,95580.63
2022-10-26T15:56:29.094Z,95586.41
2022-10-26T15:58:57.476Z,95567.63
2022-10-26T16:01:30.539Z,95585.19
2022-10-26T16:03:57.144Z,95585.72
2022-10-26T16:06:27.493Z,95583.00
2022-10-26T16:08:57.099Z,95584.00
2022-10-26T16:11:23.810Z,95592.75
2022-10-26T16:16:22.359Z,95599.47
2022-10-26T16:19:06.050Z,95604.75
2022-10-26T16:21:38.712Z,95600.19
2022-10-26T16:24:05.597Z,95612.41
2022-10-26T16:26:32.116Z,95613.41
2022-10-26T16:28:58.671Z,95616.41
2022-10-26T16:31:25.332Z,95603.34
2022-10-26T16:33:52.008Z,95617.09
2022-10-26T16:36:18.583Z,95627.88
2022-10-26T16:38:45.245Z,95621.31
2022-10-26T16:41:14.105Z,95625.06
2022-10-26T16:43:42.854Z,95613.47
2022-10-26T16:46:12.882Z,95635.00
2022-10-26T16:48:41.079Z,95626.66
2022-10-26T16:51:22.816Z,95621.81
2022-10-26T16:53:51.793Z,95632.72
2022-10-26T16:56:22.087Z,95639.09
2022-10-26T16:58:49.154Z,95646.03
2022-10-26T17:01:20.689Z,95645.91
2022-10-26T17:03:49.421Z,95648.81
2022-10-26T17:06:17.333Z,95646.09
2022-10-26T17:08:44.470Z,95654.69
2022-10-26T17:11:17.153Z,95657.38
2022-10-26T17:13:44.478Z,95663.94
2022-10-26T17:16:14.248Z,95664.25
2022-10-26T17:18:41.947Z,95671.25
2022-10-26T17:21:09.863Z,95674.63
2022-10-26T17:23:36.447Z,95670.69
2022-10-26T17:26:05.271Z,95679.34
2022-10-26T17:28:32.613Z,95687.38
2022-10-26T17:31:04.266Z,95686.81
2022-10-26T17:33:33.169Z,95676.44
2022-10-26T17:35:59.870Z,95693.28
2022-10-26T17:38:26.540Z,95687.81
2022-10-26T17:40:53.352Z,95686.47
2022-10-26T17:43:19.980Z,95694.25
2022-10-26T17:45:46.613Z,95696.78
2022-10-26T17:48:13.271Z,95703.34
2022-10-26T17:50:39.880Z,95703.34
2022-10-26T17:53:07.615Z,95705.91
2022-10-26T17:55:34.390Z,95702.69
2022-10-26T17:58:01.159Z,95694.72
2022-10-26T18:00:27.951Z,95700.03
2022-10-26T18:02:54.924Z,95698.34
2022-10-26T18:05:21.783Z,95701.91
2022-10-26T18:07:48.817Z,95703.91
2022-10-26T18:10:38.011Z,95702.88
2022-10-26T18:13:02.666Z,95708.25
2022-10-26T18:15:29.405Z,95706.84
2022-10-26T18:17:59.830Z,95702.50
2022-10-26T18:20:27.409Z,95693.78
2022-10-26T18:22:54.109Z,95710.16
2022-10-26T18:25:20.832Z,95712.25
2022-10-26T18:27:47.727Z,95718.56
2022-10-26T18:30:14.497Z,95711.94
2022-10-26T18:32:41.401Z,95722.16
2022-10-26T18:35:08.455Z,95721.88
2022-10-26T18:37:35.245Z,95729.94
2022-10-26T18:40:01.992Z,95728.31
2022-10-26T18:42:28.652Z,95709.25
2022-10-26T18:45:00.734Z,95707.56
2022-10-26T18:47:28.944Z,95718.88
2022-10-26T18:49:56.090Z,95724.44
2022-10-26T18:52:28.104Z,95709.78
2022-10-26T18:54:55.087Z,95730.03
2022-10-26T18:57:27.167Z,95730.69
2022-10-26T18:59:54.960Z,95735.91
2022-10-26T19:02:23.158Z,95737.47
2022-10-26T19:04:51.730Z,95741.72
2022-10-26T19:07:18.431Z,95744.94
2022-10-26T19:09:45.175Z,95750.75
2022-10-26T19:12:11.934Z,95737.84
2022-10-26T19:14:38.693Z,95760.06
2022-10-26T19:17:05.646Z,95758.97
2022-10-26T19:19:32.488Z,95753.38
2022-10-26T19:22:00.477Z,95763.91
2022-10-26T19:24:27.222Z,95764.50
2022-10-26T19:26:54.328Z,95772.31
2022-10-26T19:29:21.683Z,95772.09
2022-10-26T19:31:52.003Z,95762.34
2022-10-26T19:34:18.889Z,95773.91
2022-10-26T19:36:47.279Z,95766.00
2022-10-26T19:39:17.708Z,95763.72
2022-10-26T19:41:46.067Z,95764.16
2022-10-26T19:44:14.705Z,95773.88
2022-10-26T19:46:43.554Z,95779.34
2022-10-26T19:49:10.683Z,95781.38
2022-10-26T19:51:37.310Z,95784.91
2022-10-26T19:54:06.396Z,95794.50
2022-10-26T19:56:34.188Z,95782.34
2022-10-26T19:59:01.673Z,95791.03
2022-10-26T20:01:28.669Z,95786.63
2022-10-26T20:03:55.425Z,95798.72
2022-10-26T20:06:22.027Z,95803.84
2022-10-26T20:08:49.272Z,95795.50
2022-10-26T20:11:17.245Z,95802.50
2022-10-26T20:13:46.206Z,95808.28
2022-10-26T20:16:13.750Z,95810.69
2022-10-26T20:18:44.075Z,95821.50
2022-10-26T20:21:14.768Z,95817.78
2022-10-26T20:23:42.575Z,95829.47
2022-10-26T20:26:11.701Z,95838.25
2022-10-26T20:28:44.579Z,95827.00
2022-10-26T20:31:11.218Z,95836.56
2022-10-26T20:33:37.914Z,95841.38
2022-10-26T20:36:04.632Z,95849.59
2022-10-26T20:38:31.704Z,95848.47
2022-10-26T20:40:59.406Z,95848.75
2022-10-26T20:43:27.903Z,95854.59
2022-10-26T20:45:56.209Z,95844.72
2022-10-26T20:48:23.097Z,95844.75
2022-10-26T20:54:00.720Z,95855.97
2022-10-26T20:56:27.859Z,95853.50
2022-10-26T20:58:57.174Z,95857.22
2022-10-26T21:01:34.876Z,95850.69
2022-10-26T21:04:03.581Z,95862.38
2022-10-26T21:06:39.876Z,95867.94
2022-10-26T21:09:07.492Z,95863.84
2022-10-26T21:11:34.154Z,95869.53
2022-10-26T21:14:03.309Z,95858.69
2022-10-26T21:16:29.984Z,95865.59
2022-10-26T21:18:56.558Z,95865.81
2022-10-26T21:21:23.155Z,95871.25
2022-10-26T21:23:49.792Z,95873.31
2022-10-26T21:26:16.348Z,95860.41
2022-10-26T21:28:47.797Z,95865.88
2022-10-26T21:31:18.715Z,95869.97
2022-10-26T21:33:46.695Z,95869.56
2022-10-26T21:36:14.162Z,95860.28
2022-10-26T21:38:42.533Z,95870.63
2022-10-26T21:41:17.460Z,95868.47
2022-10-26T21:43:46.334Z,95866.84
2022-10-26T21:46:13.628Z,95863.44
2022-10-26T21:48:41.164Z,95854.63
2022-10-26T21:51:12.108Z,95865.72
2022-10-26T21:53:39.001Z,95856.78
2022-10-26T21:56:07.897Z,95862.56
2022-10-26T21:58:34.548Z,95848.28
2022-10-26T22:01:21.970Z,95849.25
2022-10-26T22:03:49.752Z,95851.53
2022-10-26T22:08:46.941Z,95852.78
2022-10-26T22:11:17.191Z,95847.59
2022-10-26T22:13:44.776Z,95854.63
2022-10-26T22:16:15.592Z,95857.28
2022-10-26T22:18:44.991Z,95850.34
2022-10-26T22:21:13.275Z,95854.50
2022-10-26T22:23:41.690Z,95850.06
2022-10-26T22:26:22.603Z,95847.16
2022-10-26T22:28:54.707Z,95847.94
2022-10-26T22:31:24.216Z,95851.00
2022-10-26T22:33:52.907Z,95844.56
2022-10-26T22:36:19.544Z,95856.59
2022-10-26T22:38:46.252Z,95854.81
2022-10-26T22:41:14.262Z,95842.72
2022-10-26T22:43:40.858Z,95860.16
2022-10-26T22:46:12.400Z,95861.03
2022-10-26T22:48:39.435Z,95860.91
2022-10-26T22:51:10.602Z,95863.53
2022-10-26T22:53:37.328Z,95868.53
2022-10-26T22:56:05.744Z,95866.16
2022-10-26T22:58:32.578Z,95865.59
2022-10-26T23:01:11.544Z,95872.44
2022-10-26T23:03:38.757Z,95871.59
2022-10-26T23:06:14.863Z,95859.63
2022-10-26T23:08:41.875Z,95866.91
2022-10-26T23:11:11.877Z,95872.88
2022-10-26T23:13:38.669Z,95877.03
2022-10-26T23:16:16.469Z,95872.69
2022-10-26T23:18:43.105Z,95875.53
2022-10-26T23:21:11.870Z,95870.84
2022-10-26T23:23:38.631Z,95873.13
2022-10-26T23:26:12.091Z,95876.50
2022-10-26T23:28:39.535Z,95863.75
2022-10-26T23:31:06.925Z,95873.03
2022-10-26T23:33:33.546Z,95877.06
2022-10-26T23:36:01.302Z,95879.47
2022-10-26T23:38:27.950Z,95881.31
2022-10-26T23:40:56.738Z,95883.41
2022-10-26T23:43:24.097Z,95873.78
2022-10-26T23:45:51.225Z,95871.06
2022-10-26T23:48:19.269Z,95872.19
2022-10-26T23:50:47.869Z,95886.78
2022-10-26T23:53:16.102Z,95879.47
2022-10-26T23:55:46.633Z,95880.69
2022-10-26T23:58:13.846Z,95883.59
